Time;durP1;ratioP1;P1;durP2;ratioP2;P2;SDS_P1;SDS_P2;PMS_P1;PMS_P2;Temp;Humidity;BMP_temperature;BMP_pressure;BME280_temperature;BME280_humidity;BME280_pressure;Samples;Min_cycle;Max_cycle;Signal;HPM_P1;HPM_P2
2023/08/07 00:01:21;;;;;;;0.52;0.30;;;;;;;25.52;47.04;98057.94;4935781;29;20710;-93
2023/08/07 00:03:48;;;;;;;0.53;0.10;;;;;;;25.56;46.92;98058.34;4936635;29;20192;-89
2023/08/07 00:06:14;;;;;;;0.40;0.30;;;;;;;25.67;46.19;98060.47;4937356;29;20193;-91
2023/08/07 00:08:41;;;;;;;1.40;0.30;;;;;;;25.49;46.28;98062.88;4936610;29;20213;-93
2023/08/07 00:11:08;;;;;;;0.20;0.10;;;;;;;25.47;46.83;98067.63;4936617;29;20196;-92
2023/08/07 00:13:40;;;;;;;0.20;0.10;;;;;;;25.58;46.06;98072.41;4936147;29;20181;-92
2023/08/07 00:16:06;;;;;;;1.53;0.40;;;;;;;25.54;45.67;98066.63;4937550;29;20158;-89
2023/08/07 00:18:33;;;;;;;1.97;0.20;;;;;;;25.47;45.03;98071.13;4937547;29;20730;-91
2023/08/07 00:21:02;;;;;;;0.63;0.20;;;;;;;25.58;45.20;98073.22;4937765;29;20228;-91
2023/08/07 00:23:34;;;;;;;0.30;0.20;;;;;;;25.35;45.15;98066.50;5111903;27;20620;-89
2023/08/07 00:26:01;;;;;;;0.73;0.20;;;;;;;25.23;45.70;98063.56;5111936;28;20180;-92
2023/08/07 00:28:29;;;;;;;5.10;0.43;;;;;;;25.24;45.03;98070.56;5111527;28;20172;-91
2023/08/07 00:30:56;;;;;;;0.83;0.30;;;;;;;25.05;44.92;98080.16;5110701;28;20549;-91
2023/08/07 00:33:22;;;;;;;0.30;0.10;;;;;;;25.12;44.59;98077.53;5110629;28;20168;-91
2023/08/07 00:35:48;;;;;;;0.33;0.10;;;;;;;25.04;44.39;98075.84;5111566;28;20164;-91
2023/08/07 00:38:13;;;;;;;0.93;0.20;;;;;;;24.99;44.17;98080.16;5111423;28;20236;-90
2023/08/07 00:40:39;;;;;;;0.87;0.27;;;;;;;24.87;45.40;98084.38;5110466;28;20176;-90
2023/08/07 00:43:05;;;;;;;1.50;0.50;;;;;;;24.80;45.34;98089.72;5110349;28;20251;-92
2023/08/07 00:45:36;;;;;;;1.27;0.20;;;;;;;25.02;44.12;98083.28;5111301;28;20189;-92
2023/08/07 00:48:02;;;;;;;0.70;0.20;;;;;;;25.02;44.13;98091.31;5111213;28;20514;-93
2023/08/07 00:50:28;;;;;;;1.30;0.50;;;;;;;25.19;43.81;98082.91;5110468;28;20540;-92
2023/08/07 00:52:54;;;;;;;0.73;0.30;;;;;;;25.02;44.35;98087.78;5110100;28;20164;-91
2023/08/07 00:55:21;;;;;;;0.33;0.23;;;;;;;25.02;44.60;98088.63;5111218;28;20173;-91
2023/08/07 00:57:49;;;;;;;0.63;0.17;;;;;;;25.09;43.76;98095.88;5110092;28;20172;-92
2023/08/07 01:00:17;;;;;;;0.80;0.30;;;;;;;24.87;44.37;98106.66;5107046;28;20278;-90
2023/08/07 01:02:44;;;;;;;2.13;0.20;;;;;;;24.69;44.53;98105.47;5090406;28;20329;-88
2023/08/07 01:05:10;;;;;;;0.60;0.30;;;;;;;24.84;44.32;98107.03;5106687;28;20509;-92
2023/08/07 01:07:37;;;;;;;0.70;0.20;;;;;;;24.83;44.53;98110.78;5089641;28;20626;-92
2023/08/07 01:10:06;;;;;;;0.63;0.20;;;;;;;24.89;44.04;98128.75;5106610;28;20656;-92
2023/08/07 01:12:42;;;;;;;0.73;0.20;;;;;;;24.73;44.68;98126.34;5089565;28;20585;-92
2023/08/07 01:15:16;;;;;;;1.10;0.30;;;;;;;24.84;44.52;98128.50;5109724;28;20628;-92
2023/08/07 01:17:44;;;;;;;0.40;0.20;;;;;;;24.89;44.07;98128.75;5110107;28;20167;-91
2023/08/07 01:20:11;;;;;;;0.40;0.20;;;;;;;25.09;43.24;98134.25;5109632;28;20636;-92
2023/08/07 01:22:38;;;;;;;0.83;0.30;;;;;;;24.86;43.66;98126.47;5109549;28;20235;-91
2023/08/07 01:25:05;;;;;;;1.20;0.40;;;;;;;24.68;44.55;98144.84;5109458;28;20540;-91
2023/08/07 01:27:58;;;;;;;3.23;0.70;;;;;;;24.28;44.94;98137.47;5126630;28;20210;-90
2023/08/07 01:30:33;;;;;;;1.13;0.33;;;;;;;24.38;44.75;98144.16;5107584;28;20245;-91
2023/08/07 01:33:32;;;;;;;1.47;0.43;;;;;;;24.61;44.76;98149.31;5107077;28;20160;-90
2023/08/07 01:36:06;;;;;;;0.63;0.30;;;;;;;24.49;44.40;98140.13;5096005;28;20192;-90
2023/08/07 01:38:34;;;;;;;0.73;0.30;;;;;;;24.47;45.06;98157.44;5095694;28;20164;-90
2023/08/07 01:41:02;;;;;;;0.40;0.20;;;;;;;24.60;44.49;98153.03;5112540;28;20172;-89
2023/08/07 01:43:31;;;;;;;0.30;0.20;;;;;;;24.74;44.57;98146.72;5096613;28;20197;-88
2023/08/07 01:45:58;;;;;;;0.63;0.30;;;;;;;24.60;44.88;98160.22;5096300;28;20232;-90
2023/08/07 01:48:24;;;;;;;0.20;0.10;;;;;;;24.73;44.37;98150.47;5095379;28;20184;-91
2023/08/07 01:50:50;;;;;;;0.67;0.30;;;;;;;24.64;45.04;98154.28;5112569;28;20175;-90
2023/08/07 01:53:16;;;;;;;2.10;0.23;;;;;;;24.46;45.07;98151.25;5096176;28;20173;-90
2023/08/07 01:55:43;;;;;;;1.43;0.50;;;;;;;24.25;45.68;98153.91;5112157;28;20184;-89
2023/08/07 01:58:10;;;;;;;1.57;0.40;;;;;;;24.29;45.66;98155.22;5096174;28;20176;-89
2023/08/07 02:00:38;;;;;;;1.07;0.37;;;;;;;24.20;45.91;98169.72;5095129;28;20187;-90
2023/08/07 02:03:03;;;;;;;0.40;0.20;;;;;;;24.44;45.78;98162.16;5095090;28;20216;-90
2023/08/07 02:05:29;;;;;;;0.97;0.23;;;;;;;24.76;44.81;98157.28;5095400;28;20762;-89
2023/08/07 02:07:56;;;;;;;1.33;0.30;;;;;;;24.80;45.45;98158.56;5096224;28;20637;-91
2023/08/07 02:10:22;;;;;;;0.60;0.27;;;;;;;24.74;45.56;98165.50;5096102;28;20172;-91
2023/08/07 02:12:48;;;;;;;0.77;0.20;;;;;;;24.84;45.25;98171.38;5095104;28;20187;-90
2023/08/07 02:15:14;;;;;;;0.50;0.30;;;;;;;24.68;45.80;98170.81;5095417;28;20553;-91
2023/08/07 02:17:41;;;;;;;1.33;0.30;;;;;;;24.58;46.12;98170.31;5095256;28;20169;-90
2023/08/07 02:20:07;;;;;;;0.77;0.27;;;;;;;24.67;45.75;98175.34;5094965;28;20543;-89
2023/08/07 02:22:34;;;;;;;0.83;0.37;;;;;;;24.59;46.26;98183.50;5094795;28;20780;-91
2023/08/07 02:25:01;;;;;;;0.70;0.30;;;;;;;24.55;46.76;98182.25;5094810;28;20196;-93
2023/08/07 02:27:28;;;;;;;0.53;0.30;;;;;;;24.35;47.03;98176.69;5095873;28;20172;-91
2023/08/07 02:29:54;;;;;;;0.70;0.33;;;;;;;24.18;47.77;98177.13;5094825;28;20169;-90
2023/08/07 02:32:19;;;;;;;0.90;0.40;;;;;;;24.16;47.73;98188.00;5095460;28;20169;-89
2023/08/07 02:34:47;;;;;;;0.37;0.20;;;;;;;24.12;47.63;98186.75;5094767;28;20187;-92
2023/08/07 02:37:13;;;;;;;0.90;0.30;;;;;;;24.20;47.44;98196.50;5094402;28;20544;-90
2023/08/07 02:39:39;;;;;;;0.70;0.30;;;;;;;24.32;47.38;98200.34;5095689;28;20177;-89
2023/08/07 02:42:05;;;;;;;1.07;0.40;;;;;;;24.19;47.42;98202.88;5094261;28;20197;-92
2023/08/07 02:44:32;;;;;;;0.50;0.27;;;;;;;24.05;48.48;98217.09;5095034;28;20180;-91
2023/08/07 02:46:58;;;;;;;0.83;0.40;;;;;;;24.39;47.49;98217.31;5095266;28;20621;-89
2023/08/07 02:49:25;;;;;;;0.80;0.33;;;;;;;24.41;47.29;98218.78;5095263;28;20187;-93
2023/08/07 02:51:52;;;;;;;1.63;0.50;;;;;;;24.11;48.28;98232.47;5095409;28;20634;-93
2023/08/07 02:54:19;;;;;;;0.60;0.30;;;;;;;24.05;48.33;98239.34;5094461;28;20195;-91
2023/08/07 02:56:51;;;;;;;0.53;0.20;;;;;;;24.18;48.04;98244.91;5092776;28;20191;-93
2023/08/07 02:59:18;;;;;;;0.20;0.10;;;;;;;24.00;48.41;98248.97;5109608;28;20705;-90
2023/08/07 03:01:45;;;;;;;1.10;0.40;;;;;;;23.77;49.65;98257.91;5094990;28;20188;-91
2023/08/07 03:04:12;;;;;;;1.00;0.40;;;;;;;23.73;49.31;98263.84;5094297;28;20184;-91
2023/08/07 03:06:39;;;;;;;0.73;0.37;;;;;;;23.95;49.22;98265.56;5093990;28;20184;-91
2023/08/07 03:09:07;;;;;;;1.57;0.50;;;;;;;23.79;49.37;98265.78;5094295;28;20226;-92
2023/08/07 03:11:36;;;;;;;0.73;0.40;;;;;;;23.64;50.03;98271.13;5094037;28;20173;-93
2023/08/07 03:14:03;;;;;;;0.87;0.30;;;;;;;23.67;50.28;98268.06;5111087;28;20180;-94
2023/08/07 03:16:31;;;;;;;0.73;0.50;;;;;;;23.69;49.89;98267.88;5092649;28;20192;-92
2023/08/07 03:18:57;;;;;;;0.50;0.20;;;;;;;23.59;50.47;98270.00;5073643;28;20207;-90
2023/08/07 03:21:24;;;;;;;0.80;0.40;;;;;;;23.67;50.02;98269.91;5073434;28;20181;-92
2023/08/07 03:23:51;;;;;;;0.93;0.40;;;;;;;23.63;50.09;98269.47;5090658;28;20181;-94
2023/08/07 03:26:17;;;;;;;1.57;0.70;;;;;;;23.56;50.18;98268.53;5089024;28;20249;-92
2023/08/07 03:28:46;;;;;;;0.70;0.30;;;;;;;23.34;51.08;98268.56;5094920;28;20680;-90
2023/08/07 03:31:13;;;;;;;4.10;0.60;;;;;;;23.61;50.38;98265.31;5093724;28;20241;-92
2023/08/07 03:33:40;;;;;;;1.17;0.50;;;;;;;23.39;51.02;98275.06;5093436;28;20168;-91
2023/08/07 03:36:07;;;;;;;1.37;0.60;;;;;;;23.42;50.86;98282.72;5076847;28;20663;-93
2023/08/07 03:38:35;;;;;;;1.40;0.60;;;;;;;23.62;50.53;98285.69;5093681;28;20184;-93
2023/08/07 03:41:01;;;;;;;1.40;0.63;;;;;;;23.63;50.61;98282.00;5093493;28;20172;-92
2023/08/07 03:43:28;;;;;;;1.13;0.50;;;;;;;23.59;50.36;98283.38;5094528;28;20188;-91
2023/08/07 03:45:59;;;;;;;1.50;0.60;;;;;;;23.24;51.51;98276.84;5094556;28;20264;-93
2023/08/07 03:48:25;;;;;;;0.93;0.40;;;;;;;23.33;52.00;98285.63;5093207;28;20673;-91
2023/08/07 03:50:51;;;;;;;1.37;0.50;;;;;;;23.44;51.05;98283.38;5093381;28;20172;-91
2023/08/07 03:53:18;;;;;;;1.90;0.80;;;;;;;23.33;51.66;98288.28;5091997;28;20172;-92
2023/08/07 03:55:51;;;;;;;2.07;0.60;;;;;;;23.48;51.22;98294.56;5089784;28;20177;-92
2023/08/07 03:58:17;;;;;;;2.13;0.90;;;;;;;23.24;51.21;98285.69;5101144;28;20224;-92
2023/08/07 04:00:44;;;;;;;1.30;0.70;;;;;;;23.17;51.60;98281.25;5105165;28;20188;-90
2023/08/07 04:03:11;;;;;;;1.57;0.60;;;;;;;23.06;52.25;98282.50;5098965;28;20204;-91
2023/08/07 04:05:38;;;;;;;1.63;0.70;;;;;;;23.20;51.54;98291.59;5109826;28;20184;-90
2023/08/07 04:08:06;;;;;;;1.40;0.70;;;;;;;23.17;51.68;98291.94;5094176;28;20259;-91
2023/08/07 04:10:33;;;;;;;4.97;1.00;;;;;;;23.45;50.82;98289.56;5094249;28;20229;-91
2023/08/07 04:12:58;;;;;;;1.27;0.60;;;;;;;23.32;51.66;98290.16;5089480;28;20181;-92
2023/08/07 04:15:25;;;;;;;1.50;0.60;;;;;;;23.14;52.11;98294.97;5072746;28;20187;-92
2023/08/07 04:17:52;;;;;;;1.33;0.77;;;;;;;22.87;52.95;98295.53;5073029;28;20266;-92
2023/08/07 04:20:20;;;;;;;2.53;0.93;;;;;;;23.04;52.37;98297.06;5072720;28;20223;-91
2023/08/07 04:23:07;;;;;;;1.97;0.90;;;;;;;23.18;51.50;98288.28;5086071;28;20219;-92
2023/08/07 04:25:33;;;;;;;2.47;1.20;;;;;;;23.35;50.64;98295.13;5094754;28;20156;-91
2023/08/07 04:28:03;;;;;;;1.70;0.90;;;;;;;23.59;50.37;98286.88;5093312;28;20263;-93
2023/08/07 04:30:30;;;;;;;4.30;1.03;;;;;;;23.54;50.98;98300.00;5091061;28;20522;-91
2023/08/07 04:32:55;;;;;;;1.63;0.87;;;;;;;23.32;50.98;98295.50;5090622;28;20195;-92
2023/08/07 04:35:22;;;;;;;0.83;0.53;;;;;;;23.38;50.63;98296.63;5092720;28;20176;-91
2023/08/07 04:37:55;;;;;;;1.57;0.70;;;;;;;23.35;51.20;98295.13;5091963;28;20283;-90
2023/08/07 04:40:22;;;;;;;2.27;0.77;;;;;;;23.68;50.51;98299.19;5093335;28;20160;-91
2023/08/07 04:42:49;;;;;;;1.07;0.70;;;;;;;23.79;50.74;98298.69;5092584;28;20211;-90
2023/08/07 04:45:16;;;;;;;1.50;0.67;;;;;;;23.61;50.14;98298.22;5092041;28;20177;-89
2023/08/07 04:47:43;;;;;;;1.93;0.97;;;;;;;23.80;50.15;98307.56;5109669;28;20176;-91
2023/08/07 04:50:10;;;;;;;1.53;0.70;;;;;;;24.06;49.58;98313.28;5093334;28;20168;-93
2023/08/07 04:52:36;;;;;;;2.10;0.67;;;;;;;24.11;49.98;98307.44;5092811;28;20263;-91
2023/08/07 04:55:04;;;;;;;2.63;0.70;;;;;;;24.02;48.35;98313.84;5093291;28;20173;-91
2023/08/07 04:57:31;;;;;;;1.73;1.03;;;;;;;24.16;48.54;98321.09;5093353;28;20253;-90
2023/08/07 04:59:58;;;;;;;2.43;0.77;;;;;;;24.42;47.95;98318.75;5092597;28;20186;-91
2023/08/07 05:02:23;;;;;;;2.13;0.87;;;;;;;24.26;47.69;98324.31;5088547;28;20295;-91
2023/08/07 05:04:50;;;;;;;1.30;0.87;;;;;;;24.38;47.73;98338.88;5088933;28;20268;-90
2023/08/07 05:07:16;;;;;;;1.27;0.60;;;;;;;24.36;47.68;98327.53;5072180;28;20257;-89
2023/08/07 05:09:43;;;;;;;1.60;0.70;;;;;;;24.80;47.64;98319.41;5076048;28;20238;-92
2023/08/07 05:12:10;;;;;;;3.07;0.73;;;;;;;25.03;46.31;98320.88;5076634;28;20173;-90
2023/08/07 05:14:35;;;;;;;1.30;0.70;;;;;;;25.02;46.46;98319.22;5076086;28;20259;-91
2023/08/07 05:17:01;;;;;;;1.40;0.60;;;;;;;25.13;46.28;98325.91;5082735;28;20695;-89
2023/08/07 05:19:26;;;;;;;2.57;0.70;;;;;;;25.14;45.58;98324.06;5096862;28;20173;-91
2023/08/07 05:21:53;;;;;;;1.50;0.70;;;;;;;25.24;45.95;98324.56;5095802;28;20224;-91
2023/08/07 05:24:20;;;;;;;0.90;0.50;;;;;;;25.32;45.41;98330.63;5095556;28;20181;-90
2023/08/07 05:26:45;;;;;;;1.17;0.50;;;;;;;25.35;44.66;98324.88;5089613;28;20188;-91
2023/08/07 05:29:11;;;;;;;3.67;0.70;;;;;;;25.40;45.14;98327.81;5075583;28;20177;-90
2023/08/07 05:31:37;;;;;;;0.67;0.50;;;;;;;25.20;45.39;98334.03;5075331;28;20797;-88
2023/08/07 05:34:04;;;;;;;1.25;0.57;;;;;;;25.55;44.89;98325.09;5076212;28;20169;-88
2023/08/07 05:36:32;;;;;;;1.02;0.60;;;;;;;25.47;44.72;98331.41;5076003;28;20200;-88
2023/08/07 05:39:04;;;;;;;1.27;0.60;;;;;;;25.62;44.18;98336.69;5076229;28;20181;-89
2023/08/07 05:41:30;;;;;;;1.20;0.70;;;;;;;25.52;43.76;98337.00;5077055;28;20153;-90
2023/08/07 05:43:57;;;;;;;1.60;0.67;;;;;;;25.87;43.47;98340.56;5074038;28;20180;-83
2023/08/07 05:46:24;;;;;;;1.17;0.60;;;;;;;26.06;43.14;98349.78;5073399;28;20246;-83
2023/08/07 05:48:50;;;;;;;0.83;0.40;;;;;;;25.98;43.01;98347.25;5087846;28;20200;-84
2023/08/07 05:51:19;;;;;;;1.42;0.50;;;;;;;26.04;43.17;98367.97;5111615;28;20301;-84
2023/08/07 05:53:47;;;;;;;1.55;0.70;;;;;;;26.14;42.94;98353.19;5111488;28;20172;-83
2023/08/07 05:56:12;;;;;;;1.10;0.60;;;;;;;26.31;43.20;98359.03;5093801;28;20184;-83
2023/08/07 05:58:39;;;;;;;0.98;0.55;;;;;;;26.49;42.70;98355.84;5095486;28;20183;-85
2023/08/07 06:01:06;;;;;;;0.65;0.38;;;;;;;26.39;42.56;98360.75;5111438;28;20172;-82
2023/08/07 06:03:32;;;;;;;0.77;0.40;;;;;;;26.72;42.74;98362.56;5109299;27;20291;-82
2023/08/07 06:05:58;;;;;;;1.38;0.50;;;;;;;26.96;41.24;98363.91;5094432;28;20196;-82
2023/08/07 06:08:25;;;;;;;1.40;0.65;;;;;;;27.24;40.91;98367.25;5095018;28;20180;-82
2023/08/07 06:10:50;;;;;;;1.98;0.90;;;;;;;27.07;40.17;98367.84;5077010;28;20181;-82
2023/08/07 06:13:17;;;;;;;1.58;0.60;;;;;;;27.07;40.77;98365.97;5077270;28;20251;-83
2023/08/07 06:15:44;;;;;;;6.63;1.05;;;;;;;27.00;41.10;98372.38;5074886;28;20547;-82
2023/08/07 06:18:11;;;;;;;1.38;0.50;;;;;;;27.18;40.87;98373.44;5096435;28;20172;-82
2023/08/07 06:20:37;;;;;;;0.60;0.40;;;;;;;27.50;40.38;98373.72;5091404;28;20180;-82
2023/08/07 06:23:03;;;;;;;1.17;0.70;;;;;;;27.55;40.82;98382.84;5093371;28;20307;-82
2023/08/07 06:25:30;;;;;;;1.23;0.63;;;;;;;27.72;39.49;98367.09;5077644;28;20756;-82
2023/08/07 06:27:57;;;;;;;1.27;0.60;;;;;;;27.56;39.24;98375.59;5073697;28;20181;-83
2023/08/07 06:30:23;;;;;;;1.15;0.50;;;;;;;27.68;39.79;98371.25;5086347;28;20199;-83
2023/08/07 06:32:50;;;;;;;1.23;0.52;;;;;;;27.95;38.88;98368.34;5093539;28;20181;-82
2023/08/07 06:35:17;;;;;;;1.02;0.50;;;;;;;28.24;38.51;98380.53;5094797;28;20180;-83
2023/08/07 06:37:43;;;;;;;1.65;0.60;;;;;;;28.55;37.82;98371.72;5094630;28;20191;-83
2023/08/07 06:40:11;;;;;;;0.73;0.40;;;;;;;28.72;37.88;98374.81;5094498;28;20176;-83
2023/08/07 06:42:36;;;;;;;1.30;0.45;;;;;;;29.02;38.27;98383.97;5110581;28;20196;-82
2023/08/07 06:45:03;;;;;;;0.85;0.60;;;;;;;29.38;37.72;98370.69;5091913;28;20184;-82
2023/08/07 06:47:30;;;;;;;1.35;0.70;;;;;;;29.87;36.22;98371.78;5093505;28;20188;-83
2023/08/07 06:49:56;;;;;;;1.60;0.80;;;;;;;29.79;35.56;98372.91;5094281;28;20195;-83
2023/08/07 06:52:23;;;;;;;0.88;0.45;;;;;;;29.62;36.04;98372.59;5094272;28;20172;-83
2023/08/07 06:54:50;;;;;;;1.80;0.52;;;;;;;29.64;35.41;98358.84;5092462;28;20245;-83
2023/08/07 06:57:17;;;;;;;1.15;0.50;;;;;;;29.63;36.03;98360.75;5094311;28;20211;-83
2023/08/07 06:59:42;;;;;;;0.93;0.50;;;;;;;29.75;35.40;98358.13;5094155;28;20191;-83
2023/08/07 07:02:09;;;;;;;1.30;0.50;;;;;;;29.71;35.14;98371.28;5094166;28;20196;-83
2023/08/07 07:04:36;;;;;;;1.00;0.50;;;;;;;29.55;34.67;98366.44;5110234;28;20186;-83
2023/08/07 07:07:03;;;;;;;0.70;0.30;;;;;;;29.58;33.88;98367.84;5094105;28;20172;-83
2023/08/07 07:09:28;;;;;;;0.90;0.45;;;;;;;29.80;34.47;98369.97;5092638;28;20176;-83
2023/08/07 07:11:56;;;;;;;0.52;0.32;;;;;;;29.92;33.07;98370.09;5087562;28;20172;-84
2023/08/07 07:14:23;;;;;;;0.35;0.20;;;;;;;29.91;33.80;98367.59;5092578;28;20255;-83
2023/08/07 07:16:50;;;;;;;0.82;0.35;;;;;;;30.11;34.38;98365.53;5094127;28;20176;-82
2023/08/07 07:19:16;;;;;;;0.60;0.40;;;;;;;30.05;32.97;98361.03;5093222;28;20268;-83
2023/08/07 07:21:42;;;;;;;1.00;0.50;;;;;;;29.90;33.13;98368.66;5092399;28;20180;-83
2023/08/07 07:24:08;;;;;;;4.65;0.63;;;;;;;30.02;32.81;98366.88;5075352;28;20236;-83
2023/08/07 07:26:35;;;;;;;3.30;0.52;;;;;;;30.28;33.04;98380.94;5074413;28;20634;-83
2023/08/07 07:29:02;;;;;;;2.03;0.80;;;;;;;30.39;32.01;98377.53;5091703;28;20181;-83
2023/08/07 07:35:24;;;;;;;1.15;0.45;;;;;;;30.88;32.19;98387.31;5012713;28;20603;-83
2023/08/07 07:37:50;;;;;;;0.95;0.40;;;;;;;31.19;32.53;98393.59;5012389;28;20191;-83
2023/08/07 07:40:17;;;;;;;1.92;0.38;;;;;;;31.16;31.02;98391.38;5011823;28;20195;-84
2023/08/07 07:42:42;;;;;;;2.03;0.40;;;;;;;31.33;32.07;98382.34;5011855;28;20316;-83
2023/08/07 07:45:09;;;;;;;1.27;0.52;;;;;;;31.72;31.31;98391.75;5012732;28;20202;-84
2023/08/07 07:47:36;;;;;;;1.75;0.80;;;;;;;31.96;30.37;98390.72;5015107;28;20182;-84
2023/08/07 07:50:08;;;;;;;1.38;0.30;;;;;;;32.03;29.95;98393.34;5059157;28;20617;-84
2023/08/07 07:52:34;;;;;;;1.20;0.40;;;;;;;31.96;30.09;98389.91;5074345;28;20216;-85
2023/08/07 07:55:01;;;;;;;0.90;0.63;;;;;;;32.16;29.56;98390.41;5058689;28;20224;-84
2023/08/07 07:57:26;;;;;;;0.73;0.35;;;;;;;32.16;30.46;98391.22;5071356;28;20192;-84
2023/08/07 07:59:53;;;;;;;0.70;0.43;;;;;;;32.59;30.67;98390.88;5071575;28;20610;-82
2023/08/07 08:02:20;;;;;;;0.73;0.35;;;;;;;32.83;28.88;98393.50;5072989;28;20295;-83
2023/08/07 08:04:48;;;;;;;0.77;0.40;;;;;;;33.04;29.09;98392.84;5074393;28;20197;-83
2023/08/07 08:07:15;;;;;;;1.15;0.40;;;;;;;33.03;29.17;98383.03;5071690;28;20195;-86
2023/08/07 08:09:42;;;;;;;0.98;0.30;;;;;;;32.65;28.57;98376.31;5058149;28;20188;-84
2023/08/07 08:12:08;;;;;;;0.38;0.20;;;;;;;32.41;29.49;98376.59;5078903;28;20481;-85
2023/08/07 08:14:34;;;;;;;1.02;0.50;;;;;;;32.90;29.81;98378.72;5075151;28;20662;-85
2023/08/07 08:17:01;;;;;;;0.55;0.25;;;;;;;33.19;28.46;98372.25;5089248;28;20325;-86
2023/08/07 08:19:26;;;;;;;0.60;0.30;;;;;;;33.50;27.32;98386.38;5092577;28;20278;-85
2023/08/07 08:21:52;;;;;;;0.95;0.40;;;;;;;33.22;27.22;98379.94;5092948;28;20256;-84
2023/08/07 08:24:19;;;;;;;1.15;0.40;;;;;;;33.08;27.49;98389.44;5090032;28;20236;-84
2023/08/07 08:26:46;;;;;;;0.43;0.20;;;;;;;33.28;28.30;98380.84;5091821;28;20180;-84
2023/08/07 08:29:14;;;;;;;0.80;0.40;;;;;;;33.36;27.16;98381.25;5093290;28;20172;-84
2023/08/07 08:31:41;;;;;;;0.95;0.40;;;;;;;33.01;27.09;98369.72;5089381;28;20212;-85
2023/08/07 08:34:08;;;;;;;0.45;0.25;;;;;;;32.90;27.16;98377.91;5093044;28;20180;-83
2023/08/07 08:36:35;;;;;;;0.63;0.30;;;;;;;33.00;27.26;98375.38;5092768;28;20188;-84
2023/08/07 08:39:01;;;;;;;2.08;0.35;;;;;;;33.23;27.32;98378.84;5092813;28;20185;-83
2023/08/07 08:41:29;;;;;;;0.40;0.25;;;;;;;33.19;26.59;98385.84;5090196;28;20230;-85
2023/08/07 08:43:55;;;;;;;0.57;0.20;;;;;;;33.29;26.65;98385.19;5091180;28;20188;-85
2023/08/07 08:46:27;;;;;;;0.63;0.30;;;;;;;33.27;26.55;98381.91;5094711;28;20249;-84
2023/08/07 08:48:58;;;;;;;0.82;0.40;;;;;;;33.16;27.53;98380.06;5096675;28;20176;-84
2023/08/07 08:51:25;;;;;;;1.17;0.40;;;;;;;33.05;27.12;98384.47;5096392;28;20180;-85
2023/08/07 08:53:53;;;;;;;1.05;0.30;;;;;;;32.91;27.46;98385.81;5094827;28;20188;-84
2023/08/07 08:56:22;;;;;;;0.85;0.30;;;;;;;32.79;26.87;98385.00;5112777;28;20674;-85
2023/08/07 08:58:50;;;;;;;0.70;0.40;;;;;;;32.87;26.88;98381.09;5096626;28;20188;-85
2023/08/07 09:01:17;;;;;;;0.52;0.28;;;;;;;32.87;28.44;98381.91;5078591;28;20650;-84
2023/08/07 09:03:45;;;;;;;0.38;0.20;;;;;;;33.14;26.80;98372.16;5096629;28;20211;-84
2023/08/07 09:06:13;;;;;;;0.73;0.30;;;;;;;32.88;27.85;98371.88;5096528;28;20177;-84
2023/08/07 09:08:44;;;;;;;0.63;0.25;;;;;;;32.81;27.08;98374.72;5096337;28;20187;-83
2023/08/07 09:11:12;;;;;;;2.78;0.35;;;;;;;32.84;27.09;98366.09;5096573;28;20263;-83
2023/08/07 09:13:42;;;;;;;1.05;0.28;;;;;;;32.52;27.49;98365.72;5089986;28;20407;-84
2023/08/07 09:16:11;;;;;;;0.65;0.28;;;;;;;33.06;27.96;98364.41;5087558;28;20279;-84
2023/08/07 09:18:38;;;;;;;0.40;0.22;;;;;;;33.20;26.36;98354.88;5090165;28;20707;-84
2023/08/07 09:21:03;;;;;;;1.40;0.40;;;;;;;33.48;26.88;98354.03;5108525;28;20196;-84
2023/08/07 09:23:29;;;;;;;1.02;0.20;;;;;;;33.22;25.76;98358.19;5096304;28;20289;-84
2023/08/07 09:26:05;;;;;;;0.55;0.30;;;;;;;33.17;25.79;98349.97;5107827;28;20189;-84
2023/08/07 09:28:32;;;;;;;0.50;0.28;;;;;;;33.22;26.46;98369.06;5080079;28;20707;-85
2023/08/07 09:31:01;;;;;;;1.05;0.40;;;;;;;33.37;25.81;98354.91;5086513;28;20187;-85
2023/08/07 09:33:30;;;;;;;0.68;0.35;;;;;;;33.56;27.14;98353.66;5096006;28;20529;-85
2023/08/07 09:36:02;;;;;;;1.00;0.40;;;;;;;33.51;25.89;98350.00;5095806;28;20168;-85
2023/08/07 09:38:32;;;;;;;0.80;0.30;;;;;;;33.87;25.92;98346.78;5112022;28;20180;-84
2023/08/07 09:41:05;;;;;;;4.57;0.50;;;;;;;33.62;24.99;98349.13;5111809;28;20658;-85
2023/08/07 09:43:38;;;;;;;0.77;0.30;;;;;;;33.62;24.93;98351.84;5093475;28;20200;-84
2023/08/07 09:46:06;;;;;;;0.90;0.35;;;;;;;33.81;25.01;98345.06;5095882;28;20172;-85
2023/08/07 09:48:42;;;;;;;0.68;0.20;;;;;;;34.09;25.05;98339.56;5095646;28;20168;-85
2023/08/07 09:51:10;;;;;;;0.65;0.32;;;;;;;34.08;24.72;98343.34;5095596;28;20241;-85
2023/08/07 09:53:37;;;;;;;2.30;0.50;;;;;;;33.97;25.11;98344.22;5111540;28;20539;-85
2023/08/07 09:56:03;;;;;;;0.80;0.20;;;;;;;34.18;23.62;98339.91;5095257;28;20172;-84
2023/08/07 09:58:29;;;;;;;1.77;0.40;;;;;;;34.53;24.06;98341.22;5094573;28;20176;-85
2023/08/07 10:00:59;;;;;;;0.50;0.30;;;;;;;34.41;24.12;98345.94;5094180;28;20180;-84
2023/08/07 10:03:26;;;;;;;2.47;0.30;;;;;;;34.38;26.08;98334.78;5085496;28;20653;-85
2023/08/07 10:05:54;;;;;;;0.82;0.32;;;;;;;34.50;25.12;98330.84;5078774;28;20265;-85
2023/08/07 10:08:21;;;;;;;0.30;0.20;;;;;;;34.62;26.29;98336.16;5093981;28;20184;-85
2023/08/07 10:10:47;;;;;;;0.70;0.30;;;;;;;34.71;24.49;98331.09;5110996;28;20237;-85
2023/08/07 10:13:14;;;;;;;0.60;0.30;;;;;;;35.07;24.82;98327.72;5095174;28;20176;-85
2023/08/07 10:15:42;;;;;;;0.55;0.20;;;;;;;35.26;23.62;98326.28;5095362;28;20172;-84
2023/08/07 10:18:10;;;;;;;0.50;0.22;;;;;;;35.00;23.67;98337.97;5091531;28;20181;-84
2023/08/07 10:20:41;;;;;;;0.60;0.20;;;;;;;35.29;23.96;98316.75;5095063;28;20177;-85
2023/08/07 10:23:10;;;;;;;0.68;0.30;;;;;;;35.49;23.49;98320.47;5061483;28;20229;-86
2023/08/07 10:25:41;;;;;;;1.35;0.40;;;;;;;35.35;23.92;98313.00;5075938;28;20714;-86
2023/08/07 10:28:15;;;;;;;1.05;0.40;;;;;;;35.67;24.66;98313.81;5093325;28;20296;-85
2023/08/07 10:30:42;;;;;;;0.75;0.47;;;;;;;36.01;24.47;98312.44;5091513;28;20195;-86
2023/08/07 10:33:11;;;;;;;0.77;0.30;;;;;;;35.96;24.07;98312.38;5089980;28;20185;-85
2023/08/07 10:35:51;;;;;;;2.00;0.30;;;;;;;35.67;24.44;98311.91;5088639;28;20172;-85
2023/08/07 10:38:22;;;;;;;0.40;0.30;;;;;;;35.72;24.60;98317.41;5085509;28;20617;-85
2023/08/07 10:41:12;;;;;;;1.45;0.40;;;;;;;35.88;23.79;98312.09;5094119;28;20708;-85
2023/08/07 10:43:45;;;;;;;0.77;0.30;;;;;;;36.13;22.78;98309.53;5086639;28;20212;-86
2023/08/07 10:46:21;;;;;;;0.60;0.30;;;;;;;36.44;23.17;98305.84;5094603;28;20520;-85
2023/08/07 10:48:54;;;;;;;1.27;0.50;;;;;;;36.45;22.82;98304.78;5094538;28;20152;-85
2023/08/07 10:51:20;;;;;;;1.38;0.40;;;;;;;36.68;24.07;98306.25;5094507;28;20176;-85
2023/08/07 10:53:51;;;;;;;0.47;0.20;;;;;;;37.05;23.53;98311.53;5094076;28;20644;-86
2023/08/07 10:56:40;;;;;;;0.88;0.30;;;;;;;37.02;24.10;98309.34;5093661;28;20180;-86
2023/08/07 10:59:12;;;;;;;0.85;0.28;;;;;;;37.25;22.72;98298.72;5093254;28;20234;-85
2023/08/07 11:01:41;;;;;;;2.30;0.45;;;;;;;37.43;23.62;98294.66;5091434;28;20177;-85
2023/08/07 11:04:13;;;;;;;0.82;0.38;;;;;;;36.97;23.23;98295.69;5085445;28;20235;-85
2023/08/07 11:06:39;;;;;;;0.70;0.40;;;;;;;37.39;23.68;98288.06;5073160;28;20607;-85
2023/08/07 11:09:10;;;;;;;0.68;0.30;;;;;;;37.39;23.74;98283.44;5078010;28;20653;-85
2023/08/07 11:11:40;;;;;;;1.13;0.30;;;;;;;37.04;23.46;98298.97;5087125;28;20264;-84
2023/08/07 11:14:11;;;;;;;0.82;0.30;;;;;;;36.89;23.49;98283.34;5101798;28;20176;-85
2023/08/07 11:16:38;;;;;;;1.33;0.40;;;;;;;37.03;23.70;98279.00;5093865;28;20219;-85
2023/08/07 11:19:05;;;;;;;1.05;0.50;;;;;;;37.06;24.10;98285.84;5110208;28;20593;-86
2023/08/07 11:21:32;;;;;;;0.95;0.40;;;;;;;37.40;24.00;98270.56;5093685;28;20267;-85
2023/08/07 11:23:59;;;;;;;1.77;0.43;;;;;;;37.59;24.30;98268.94;5093639;28;20227;-85
2023/08/07 11:26:28;;;;;;;0.43;0.28;;;;;;;37.46;23.08;98269.50;5092877;28;20185;-86
2023/08/07 11:28:55;;;;;;;2.85;0.50;;;;;;;37.14;24.12;98257.97;5107610;28;20234;-85
2023/08/07 11:31:27;;;;;;;1.10;0.50;;;;;;;37.23;24.41;98259.91;5077448;28;20183;-85
2023/08/07 11:33:55;;;;;;;1.27;0.40;;;;;;;37.59;23.95;98263.47;5082700;28;20176;-85
2023/08/07 11:36:22;;;;;;;0.95;0.40;;;;;;;37.68;24.33;98266.47;5093551;28;20176;-86
2023/08/07 11:38:49;;;;;;;1.25;0.60;;;;;;;37.61;23.79;98255.78;5093656;28;20203;-86
2023/08/07 11:41:18;;;;;;;0.98;0.40;;;;;;;37.64;22.51;98263.47;5109536;28;20176;-86